Danforth, Maine
Current Conditions -  °F | °C
As of 6:29 AM on Thursday 27 Nov 2014 (Local Time) from KHUL Reporting Station
Haze Haze  
Wind Chill: 13°   Ceiling: 1000
Heat Index: 25°   Visibility: 1mi
Dew Point: 22°   Wind: 15mph
Humidity: 88%   Direction: 350°N
Pressure: 29.72"   Gusts: 24mph
Location:  45.66°N, 67.87°W
Report Text: KHUL 271129Z AUTO 35013G21KT 1SM BR VV010 M04/M06 A2972 RMK AO2 T10391056 PWINO FZRANO $
Loading
Personal Weather Stations






























Interactive Weather Map New forecast layout! Learn more

10-Day Weather Forecast

Advertisements
Track Severe Weather on mobile